sensor_id;sensor_type;location;lat;lon;timestamp;temperature;humidity
11136;DHT22;5622;50.840;4.948;2022-07-18T00:02:04;18.50;91.80
11136;DHT22;5622;50.840;4.948;2022-07-18T00:04:31;18.50;91.90
11136;DHT22;5622;50.840;4.948;2022-07-18T00:06:58;18.50;92.20
11136;DHT22;5622;50.840;4.948;2022-07-18T00:09:26;18.50;92.00
11136;DHT22;5622;50.840;4.948;2022-07-18T00:11:53;18.40;92.00
11136;DHT22;5622;50.840;4.948;2022-07-18T00:14:21;18.40;92.20
11136;DHT22;5622;50.840;4.948;2022-07-18T00:16:49;18.40;92.50
11136;DHT22;5622;50.840;4.948;2022-07-18T00:19:18;18.40;92.20
11136;DHT22;5622;50.840;4.948;2022-07-18T00:21:45;18.30;92.20
11136;DHT22;5622;50.840;4.948;2022-07-18T00:24:12;18.30;92.00
11136;DHT22;5622;50.840;4.948;2022-07-18T00:26:39;18.30;92.00
11136;DHT22;5622;50.840;4.948;2022-07-18T00:29:06;18.30;92.20
11136;DHT22;5622;50.840;4.948;2022-07-18T00:31:35;18.30;92.40
11136;DHT22;5622;50.840;4.948;2022-07-18T00:34:02;18.20;92.20
11136;DHT22;5622;50.840;4.948;2022-07-18T00:36:31;18.30;92.10
11136;DHT22;5622;50.840;4.948;2022-07-18T00:38:59;18.20;92.50
11136;DHT22;5622;50.840;4.948;2022-07-18T00:41:26;18.20;92.60
11136;DHT22;5622;50.840;4.948;2022-07-18T00:43:53;18.30;93.00
11136;DHT22;5622;50.840;4.948;2022-07-18T00:46:21;18.30;92.80
11136;DHT22;5622;50.840;4.948;2022-07-18T00:48:49;18.20;92.50
11136;DHT22;5622;50.840;4.948;2022-07-18T00:51:16;18.20;92.60
11136;DHT22;5622;50.840;4.948;2022-07-18T00:53:45;18.20;92.20
11136;DHT22;5622;50.840;4.948;2022-07-18T00:56:13;18.20;92.20
11136;DHT22;5622;50.840;4.948;2022-07-18T00:58:43;18.20;92.60
11136;DHT22;5622;50.840;4.948;2022-07-18T01:01:12;18.20;92.70
11136;DHT22;5622;50.840;4.948;2022-07-18T01:03:56;18.10;92.20
11136;DHT22;5622;50.840;4.948;2022-07-18T01:06:23;18.10;91.80
11136;DHT22;5622;50.840;4.948;2022-07-18T01:08:52;18.00;91.50
11136;DHT22;5622;50.840;4.948;2022-07-18T01:11:20;18.00;91.30
11136;DHT22;5622;50.840;4.948;2022-07-18T01:13:47;17.90;91.20
11136;DHT22;5622;50.840;4.948;2022-07-18T01:16:15;17.80;91.20
11136;DHT22;5622;50.840;4.948;2022-07-18T01:18:44;17.80;91.20
11136;DHT22;5622;50.840;4.948;2022-07-18T01:21:14;17.70;90.90
11136;DHT22;5622;50.840;4.948;2022-07-18T01:23:41;17.60;90.90
11136;DHT22;5622;50.840;4.948;2022-07-18T01:26:09;17.60;91.30
11136;DHT22;5622;50.840;4.948;2022-07-18T01:28:39;17.60;91.50
11136;DHT22;5622;50.840;4.948;2022-07-18T01:31:06;17.50;91.60
11136;DHT22;5622;50.840;4.948;2022-07-18T01:33:34;17.40;91.60
11136;DHT22;5622;50.840;4.948;2022-07-18T01:36:02;17.40;91.70
11136;DHT22;5622;50.840;4.948;2022-07-18T01:38:32;17.40;91.90
11136;DHT22;5622;50.840;4.948;2022-07-18T01:40:59;17.40;92.10
11136;DHT22;5622;50.840;4.948;2022-07-18T01:43:27;17.30;92.10
11136;DHT22;5622;50.840;4.948;2022-07-18T01:45:55;17.30;92.10
11136;DHT22;5622;50.840;4.948;2022-07-18T01:48:22;17.30;92.10
11136;DHT22;5622;50.840;4.948;2022-07-18T01:50:50;17.20;92.10
11136;DHT22;5622;50.840;4.948;2022-07-18T01:53:17;17.20;92.20
11136;DHT22;5622;50.840;4.948;2022-07-18T01:55:45;17.20;92.20
11136;DHT22;5622;50.840;4.948;2022-07-18T01:58:12;17.10;92.30
11136;DHT22;5622;50.840;4.948;2022-07-18T02:00:40;17.10;92.50
11136;DHT22;5622;50.840;4.948;2022-07-18T02:03:07;17.10;92.60
11136;DHT22;5622;50.840;4.948;2022-07-18T02:05:34;17.10;92.80
11136;DHT22;5622;50.840;4.948;2022-07-18T02:08:01;17.00;92.70
11136;DHT22;5622;50.840;4.948;2022-07-18T02:10:28;16.90;92.70
11136;DHT22;5622;50.840;4.948;2022-07-18T02:12:57;16.80;92.90
11136;DHT22;5622;50.840;4.948;2022-07-18T02:15:24;16.80;93.10
11136;DHT22;5622;50.840;4.948;2022-07-18T02:17:52;16.80;93.30
11136;DHT22;5622;50.840;4.948;2022-07-18T02:20:19;16.70;93.30
11136;DHT22;5622;50.840;4.948;2022-07-18T02:22:46;16.70;93.50
11136;DHT22;5622;50.840;4.948;2022-07-18T02:25:13;16.70;93.50
11136;DHT22;5622;50.840;4.948;2022-07-18T02:27:40;16.70;93.60
11136;DHT22;5622;50.840;4.948;2022-07-18T02:30:10;16.70;93.60
11136;DHT22;5622;50.840;4.948;2022-07-18T02:32:38;16.60;93.70
11136;DHT22;5622;50.840;4.948;2022-07-18T02:35:06;16.70;93.90
11136;DHT22;5622;50.840;4.948;2022-07-18T02:37:34;16.70;94.00
11136;DHT22;5622;50.840;4.948;2022-07-18T02:40:05;16.70;94.00
11136;DHT22;5622;50.840;4.948;2022-07-18T02:42:32;16.70;93.90
11136;DHT22;5622;50.840;4.948;2022-07-18T02:44:59;16.70;93.90
11136;DHT22;5622;50.840;4.948;2022-07-18T02:47:28;16.70;93.90
11136;DHT22;5622;50.840;4.948;2022-07-18T02:49:55;16.80;93.90
11136;DHT22;5622;50.840;4.948;2022-07-18T02:52:22;16.80;93.90
11136;DHT22;5622;50.840;4.948;2022-07-18T02:54:49;16.70;93.90
11136;DHT22;5622;50.840;4.948;2022-07-18T02:57:16;16.80;94.10
11136;DHT22;5622;50.840;4.948;2022-07-18T02:59:43;16.80;94.10
11136;DHT22;5622;50.840;4.948;2022-07-18T03:02:11;16.80;94.00
11136;DHT22;5622;50.840;4.948;2022-07-18T03:04:39;16.80;94.00
11136;DHT22;5622;50.840;4.948;2022-07-18T03:07:06;16.80;94.00
11136;DHT22;5622;50.840;4.948;2022-07-18T03:09:33;16.70;94.10
11136;DHT22;5622;50.840;4.948;2022-07-18T03:12:01;16.70;94.10
11136;DHT22;5622;50.840;4.948;2022-07-18T03:14:29;16.70;94.30
11136;DHT22;5622;50.840;4.948;2022-07-18T03:16:56;16.70;94.30
11136;DHT22;5622;50.840;4.948;2022-07-18T03:19:23;16.60;94.50
11136;DHT22;5622;50.840;4.948;2022-07-18T03:21:51;16.60;94.50
11136;DHT22;5622;50.840;4.948;2022-07-18T03:24:19;16.60;94.70
11136;DHT22;5622;50.840;4.948;2022-07-18T03:26:46;16.50;94.80
11136;DHT22;5622;50.840;4.948;2022-07-18T03:29:13;16.60;94.90
11136;DHT22;5622;50.840;4.948;2022-07-18T03:31:40;16.50;94.90
11136;DHT22;5622;50.840;4.948;2022-07-18T03:34:07;16.50;95.00
11136;DHT22;5622;50.840;4.948;2022-07-18T03:36:34;16.50;95.10
11136;DHT22;5622;50.840;4.948;2022-07-18T03:39:04;16.40;95.10
11136;DHT22;5622;50.840;4.948;2022-07-18T03:41:31;16.40;95.10
11136;DHT22;5622;50.840;4.948;2022-07-18T03:43:58;16.40;95.40
11136;DHT22;5622;50.840;4.948;2022-07-18T03:46:25;16.40;95.50
11136;DHT22;5622;50.840;4.948;2022-07-18T03:48:53;16.30;95.60
11136;DHT22;5622;50.840;4.948;2022-07-18T03:51:20;16.30;95.50
11136;DHT22;5622;50.840;4.948;2022-07-18T03:53:47;16.20;95.60
11136;DHT22;5622;50.840;4.948;2022-07-18T03:56:16;16.20;95.70
11136;DHT22;5622;50.840;4.948;2022-07-18T03:58:43;16.10;95.80
11136;DHT22;5622;50.840;4.948;2022-07-18T04:01:10;16.10;96.00
11136;DHT22;5622;50.840;4.948;2022-07-18T04:03:38;16.10;96.20
11136;DHT22;5622;50.840;4.948;2022-07-18T04:06:05;16.10;96.20
11136;DHT22;5622;50.840;4.948;2022-07-18T04:08:32;16.10;96.20
11136;DHT22;5622;50.840;4.948;2022-07-18T04:10:59;16.00;96.10
11136;DHT22;5622;50.840;4.948;2022-07-18T04:13:28;16.10;96.10
11136;DHT22;5622;50.840;4.948;2022-07-18T04:15:55;16.10;96.10
11136;DHT22;5622;50.840;4.948;2022-07-18T04:18:22;16.10;96.20
11136;DHT22;5622;50.840;4.948;2022-07-18T04:20:49;16.10;96.20
11136;DHT22;5622;50.840;4.948;2022-07-18T04:23:16;16.20;96.40
11136;DHT22;5622;50.840;4.948;2022-07-18T04:25:44;16.20;96.50
11136;DHT22;5622;50.840;4.948;2022-07-18T04:28:12;16.20;96.60
11136;DHT22;5622;50.840;4.948;2022-07-18T04:30:42;16.20;96.60
11136;DHT22;5622;50.840;4.948;2022-07-18T04:33:10;16.20;96.60
11136;DHT22;5622;50.840;4.948;2022-07-18T04:35:39;16.20;96.70
11136;DHT22;5622;50.840;4.948;2022-07-18T04:38:08;16.20;96.90
11136;DHT22;5622;50.840;4.948;2022-07-18T04:40:36;16.20;97.00
11136;DHT22;5622;50.840;4.948;2022-07-18T04:43:04;16.20;97.10
11136;DHT22;5622;50.840;4.948;2022-07-18T04:45:31;16.20;97.20
11136;DHT22;5622;50.840;4.948;2022-07-18T04:48:00;16.20;97.30
11136;DHT22;5622;50.840;4.948;2022-07-18T04:50:28;16.30;97.40
11136;DHT22;5622;50.840;4.948;2022-07-18T04:52:56;16.30;97.60
11136;DHT22;5622;50.840;4.948;2022-07-18T04:55:24;16.30;97.80
11136;DHT22;5622;50.840;4.948;2022-07-18T04:57:52;16.30;97.90
11136;DHT22;5622;50.840;4.948;2022-07-18T05:00:20;16.30;98.10
11136;DHT22;5622;50.840;4.948;2022-07-18T05:02:50;16.30;98.40
11136;DHT22;5622;50.840;4.948;2022-07-18T05:05:19;16.30;98.50
11136;DHT22;5622;50.840;4.948;2022-07-18T05:07:47;16.40;98.40
11136;DHT22;5622;50.840;4.948;2022-07-18T05:10:16;16.40;97.80
11136;DHT22;5622;50.840;4.948;2022-07-18T05:12:45;16.40;97.80
11136;DHT22;5622;50.840;4.948;2022-07-18T05:15:14;16.40;98.00
11136;DHT22;5622;50.840;4.948;2022-07-18T05:17:41;16.40;98.30
11136;DHT22;5622;50.840;4.948;2022-07-18T05:20:11;16.50;98.40
11136;DHT22;5622;50.840;4.948;2022-07-18T05:22:41;16.50;98.60
11136;DHT22;5622;50.840;4.948;2022-07-18T05:25:09;16.60;98.90
11136;DHT22;5622;50.840;4.948;2022-07-18T05:27:37;16.70;98.60
11136;DHT22;5622;50.840;4.948;2022-07-18T05:30:07;16.70;98.60
11136;DHT22;5622;50.840;4.948;2022-07-18T05:32:35;16.70;98.80
11136;DHT22;5622;50.840;4.948;2022-07-18T05:35:03;16.80;99.00
11136;DHT22;5622;50.840;4.948;2022-07-18T05:37:30;16.80;98.90
11136;DHT22;5622;50.840;4.948;2022-07-18T05:39:59;16.80;98.80
11136;DHT22;5622;50.840;4.948;2022-07-18T05:42:26;16.80;98.70
11136;DHT22;5622;50.840;4.948;2022-07-18T05:44:53;16.90;98.80
11136;DHT22;5622;50.840;4.948;2022-07-18T05:47:20;16.90;98.70
11136;DHT22;5622;50.840;4.948;2022-07-18T05:49:47;17.00;98.80
11136;DHT22;5622;50.840;4.948;2022-07-18T05:52:15;17.00;98.80
11136;DHT22;5622;50.840;4.948;2022-07-18T05:54:42;17.10;98.90
11136;DHT22;5622;50.840;4.948;2022-07-18T05:57:10;17.10;98.90
11136;DHT22;5622;50.840;4.948;2022-07-18T05:59:37;17.10;99.30
11136;DHT22;5622;50.840;4.948;2022-07-18T06:02:05;17.20;99.50
11136;DHT22;5622;50.840;4.948;2022-07-18T06:04:32;17.20;99.70
11136;DHT22;5622;50.840;4.948;2022-07-18T06:06:59;17.20;99.70
11136;DHT22;5622;50.840;4.948;2022-07-18T06:09:26;17.20;99.90
11136;DHT22;5622;50.840;4.948;2022-07-18T06:11:57;17.30;99.90
11136;DHT22;5622;50.840;4.948;2022-07-18T06:14:26;17.20;99.90
11136;DHT22;5622;50.840;4.948;2022-07-18T06:16:53;17.30;99.90
11136;DHT22;5622;50.840;4.948;2022-07-18T06:19:21;17.30;99.90
11136;DHT22;5622;50.840;4.948;2022-07-18T06:21:48;17.40;99.90
11136;DHT22;5622;50.840;4.948;2022-07-18T06:24:16;17.40;99.90
11136;DHT22;5622;50.840;4.948;2022-07-18T06:26:43;17.50;99.90
11136;DHT22;5622;50.840;4.948;2022-07-18T06:29:10;17.50;99.90
11136;DHT22;5622;50.840;4.948;2022-07-18T06:31:39;17.60;99.90
11136;DHT22;5622;50.840;4.948;2022-07-18T06:34:06;17.70;99.90
11136;DHT22;5622;50.840;4.948;2022-07-18T06:36:34;17.70;99.90
11136;DHT22;5622;50.840;4.948;2022-07-18T06:39:01;17.80;99.90
11136;DHT22;5622;50.840;4.948;2022-07-18T06:41:34;17.80;99.90
11136;DHT22;5622;50.840;4.948;2022-07-18T06:44:01;17.90;99.90
11136;DHT22;5622;50.840;4.948;2022-07-18T06:46:28;18.00;99.90
11136;DHT22;5622;50.840;4.948;2022-07-18T06:48:57;18.00;99.90
11136;DHT22;5622;50.840;4.948;2022-07-18T06:51:24;18.10;99.90
11136;DHT22;5622;50.840;4.948;2022-07-18T06:53:51;18.20;99.90
11136;DHT22;5622;50.840;4.948;2022-07-18T06:56:18;18.30;99.90
11136;DHT22;5622;50.840;4.948;2022-07-18T06:58:45;18.40;99.90
11136;DHT22;5622;50.840;4.948;2022-07-18T07:01:15;18.50;99.90
11136;DHT22;5622;50.840;4.948;2022-07-18T07:03:42;18.60;99.90
11136;DHT22;5622;50.840;4.948;2022-07-18T07:06:11;18.70;99.90
11136;DHT22;5622;50.840;4.948;2022-07-18T07:08:39;18.80;99.90
11136;DHT22;5622;50.840;4.948;2022-07-18T07:11:06;18.90;99.30
11136;DHT22;5622;50.840;4.948;2022-07-18T07:13:33;19.10;99.30
11136;DHT22;5622;50.840;4.948;2022-07-18T07:16:00;19.20;98.80
11136;DHT22;5622;50.840;4.948;2022-07-18T07:18:27;19.40;98.60
11136;DHT22;5622;50.840;4.948;2022-07-18T07:20:54;19.60;98.70
11136;DHT22;5622;50.840;4.948;2022-07-18T07:23:23;19.80;98.80
11136;DHT22;5622;50.840;4.948;2022-07-18T07:25:50;20.10;97.50
11136;DHT22;5622;50.840;4.948;2022-07-18T07:28:17;20.40;96.10
11136;DHT22;5622;50.840;4.948;2022-07-18T07:30:45;20.60;96.20
11136;DHT22;5622;50.840;4.948;2022-07-18T07:33:12;20.90;95.70
11136;DHT22;5622;50.840;4.948;2022-07-18T07:35:39;21.10;94.50
11136;DHT22;5622;50.840;4.948;2022-07-18T07:38:06;21.40;94.00
11136;DHT22;5622;50.840;4.948;2022-07-18T07:40:36;21.70;94.90
11136;DHT22;5622;50.840;4.948;2022-07-18T07:43:07;21.90;92.90
11136;DHT22;5622;50.840;4.948;2022-07-18T07:45:35;22.30;89.00
11136;DHT22;5622;50.840;4.948;2022-07-18T07:48:02;22.70;87.60
11136;DHT22;5622;50.840;4.948;2022-07-18T07:50:30;22.90;87.90
11136;DHT22;5622;50.840;4.948;2022-07-18T07:52:57;23.10;89.50
11136;DHT22;5622;50.840;4.948;2022-07-18T07:55:24;23.30;89.10
11136;DHT22;5622;50.840;4.948;2022-07-18T07:57:53;23.40;89.90
11136;DHT22;5622;50.840;4.948;2022-07-18T08:00:20;23.60;84.80
11136;DHT22;5622;50.840;4.948;2022-07-18T08:02:53;23.80;80.60
11136;DHT22;5622;50.840;4.948;2022-07-18T08:05:20;24.00;83.30
11136;DHT22;5622;50.840;4.948;2022-07-18T08:07:47;24.10;81.40
11136;DHT22;5622;50.840;4.948;2022-07-18T08:10:15;24.20;81.10
11136;DHT22;5622;50.840;4.948;2022-07-18T08:12:42;24.40;80.70
11136;DHT22;5622;50.840;4.948;2022-07-18T08:15:11;24.70;75.20
11136;DHT22;5622;50.840;4.948;2022-07-18T08:17:39;24.80;73.60
11136;DHT22;5622;50.840;4.948;2022-07-18T08:20:07;25.20;72.50
11136;DHT22;5622;50.840;4.948;2022-07-18T08:22:35;25.50;69.10
11136;DHT22;5622;50.840;4.948;2022-07-18T08:25:02;25.60;70.70
11136;DHT22;5622;50.840;4.948;2022-07-18T08:27:30;25.90;67.60
11136;DHT22;5622;50.840;4.948;2022-07-18T08:29:57;26.10;70.60
11136;DHT22;5622;50.840;4.948;2022-07-18T08:32:25;26.20;70.50
11136;DHT22;5622;50.840;4.948;2022-07-18T08:34:53;26.40;68.50
11136;DHT22;5622;50.840;4.948;2022-07-18T08:37:20;26.60;67.70
11136;DHT22;5622;50.840;4.948;2022-07-18T08:39:47;26.70;68.30
11136;DHT22;5622;50.840;4.948;2022-07-18T08:42:16;27.10;67.60
11136;DHT22;5622;50.840;4.948;2022-07-18T08:44:46;27.30;63.70
11136;DHT22;5622;50.840;4.948;2022-07-18T08:47:15;27.50;63.30
11136;DHT22;5622;50.840;4.948;2022-07-18T08:49:44;27.70;63.20
11136;DHT22;5622;50.840;4.948;2022-07-18T08:52:11;27.90;61.60
11136;DHT22;5622;50.840;4.948;2022-07-18T08:54:39;28.00;63.10
11136;DHT22;5622;50.840;4.948;2022-07-18T08:57:06;28.00;63.90
11136;DHT22;5622;50.840;4.948;2022-07-18T08:59:33;28.10;63.40
11136;DHT22;5622;50.840;4.948;2022-07-18T09:02:00;28.10;62.20
11136;DHT22;5622;50.840;4.948;2022-07-18T09:04:35;28.20;62.60
11136;DHT22;5622;50.840;4.948;2022-07-18T09:07:04;28.50;59.30
11136;DHT22;5622;50.840;4.948;2022-07-18T09:09:34;28.60;59.80
11136;DHT22;5622;50.840;4.948;2022-07-18T09:12:04;28.90;57.80
11136;DHT22;5622;50.840;4.948;2022-07-18T09:14:34;28.90;58.60
11136;DHT22;5622;50.840;4.948;2022-07-18T09:17:08;29.20;55.20
11136;DHT22;5622;50.840;4.948;2022-07-18T09:19:36;29.30;55.80
11136;DHT22;5622;50.840;4.948;2022-07-18T09:22:18;29.40;54.90
11136;DHT22;5622;50.840;4.948;2022-07-18T09:25:06;29.60;56.90
11136;DHT22;5622;50.840;4.948;2022-07-18T09:27:37;29.80;52.90
11136;DHT22;5622;50.840;4.948;2022-07-18T09:30:19;29.90;54.40
11136;DHT22;5622;50.840;4.948;2022-07-18T09:32:52;30.20;55.40
11136;DHT22;5622;50.840;4.948;2022-07-18T09:35:22;30.40;53.90
11136;DHT22;5622;50.840;4.948;2022-07-18T09:38:02;30.70;50.90
11136;DHT22;5622;50.840;4.948;2022-07-18T09:40:31;30.90;52.20
11136;DHT22;5622;50.840;4.948;2022-07-18T09:43:00;30.90;51.50
11136;DHT22;5622;50.840;4.948;2022-07-18T09:45:30;30.80;47.90
11136;DHT22;5622;50.840;4.948;2022-07-18T09:47:59;30.90;50.30
11136;DHT22;5622;50.840;4.948;2022-07-18T09:50:29;31.00;51.60
11136;DHT22;5622;50.840;4.948;2022-07-18T09:55:45;31.00;49.20
11136;DHT22;5622;50.840;4.948;2022-07-18T09:58:16;31.20;49.70
11136;DHT22;5622;50.840;4.948;2022-07-18T10:00:44;31.40;47.00
11136;DHT22;5622;50.840;4.948;2022-07-18T10:03:12;31.30;48.40
11136;DHT22;5622;50.840;4.948;2022-07-18T10:05:40;31.20;48.00
11136;DHT22;5622;50.840;4.948;2022-07-18T10:08:11;31.40;48.00
11136;DHT22;5622;50.840;4.948;2022-07-18T10:10:40;31.50;50.30
11136;DHT22;5622;50.840;4.948;2022-07-18T10:13:08;31.50;47.60
11136;DHT22;5622;50.840;4.948;2022-07-18T10:15:37;31.50;49.40
11136;DHT22;5622;50.840;4.948;2022-07-18T10:18:06;31.50;47.80
11136;DHT22;5622;50.840;4.948;2022-07-18T10:20:36;31.40;49.10
11136;DHT22;5622;50.840;4.948;2022-07-18T10:23:13;31.30;46.60
11136;DHT22;5622;50.840;4.948;2022-07-18T10:25:42;31.30;42.80
11136;DHT22;5622;50.840;4.948;2022-07-18T10:28:10;31.30;42.10
11136;DHT22;5622;50.840;4.948;2022-07-18T10:30:43;31.10;40.20
11136;DHT22;5622;50.840;4.948;2022-07-18T10:33:44;31.00;41.50
11136;DHT22;5622;50.840;4.948;2022-07-18T10:36:14;30.80;40.50
11136;DHT22;5622;50.840;4.948;2022-07-18T10:39:05;30.60;43.60
11136;DHT22;5622;50.840;4.948;2022-07-18T10:41:33;30.50;41.60
11136;DHT22;5622;50.840;4.948;2022-07-18T10:44:41;30.40;42.80
11136;DHT22;5622;50.840;4.948;2022-07-18T10:47:09;30.20;43.00
11136;DHT22;5622;50.840;4.948;2022-07-18T10:50:00;30.10;41.50
11136;DHT22;5622;50.840;4.948;2022-07-18T10:55:33;30.30;46.50
11136;DHT22;5622;50.840;4.948;2022-07-18T10:58:21;30.60;47.60
11136;DHT22;5622;50.840;4.948;2022-07-18T11:00:53;30.70;43.40
11136;DHT22;5622;50.840;4.948;2022-07-18T11:03:27;31.00;42.50
11136;DHT22;5622;50.840;4.948;2022-07-18T11:05:56;31.20;40.90
11136;DHT22;5622;50.840;4.948;2022-07-18T11:08:23;31.30;43.90
11136;DHT22;5622;50.840;4.948;2022-07-18T11:11:11;31.40;40.60
11136;DHT22;5622;50.840;4.948;2022-07-18T11:13:43;31.70;41.70
11136;DHT22;5622;50.840;4.948;2022-07-18T11:16:16;31.70;38.30
11136;DHT22;5622;50.840;4.948;2022-07-18T11:19:15;31.80;39.50
11136;DHT22;5622;50.840;4.948;2022-07-18T11:21:44;31.80;36.80
11136;DHT22;5622;50.840;4.948;2022-07-18T11:24:13;31.60;35.90
11136;DHT22;5622;50.840;4.948;2022-07-18T11:26:45;31.40;35.10
11136;DHT22;5622;50.840;4.948;2022-07-18T11:29:15;31.30;35.00
11136;DHT22;5622;50.840;4.948;2022-07-18T11:31:45;31.10;38.50
11136;DHT22;5622;50.840;4.948;2022-07-18T11:34:12;30.90;40.50
11136;DHT22;5622;50.840;4.948;2022-07-18T11:36:43;30.80;40.40
11136;DHT22;5622;50.840;4.948;2022-07-18T11:39:11;30.60;38.70
11136;DHT22;5622;50.840;4.948;2022-07-18T11:41:40;30.50;38.80
11136;DHT22;5622;50.840;4.948;2022-07-18T11:44:17;30.50;38.20
11136;DHT22;5622;50.840;4.948;2022-07-18T11:46:47;30.40;41.50
11136;DHT22;5622;50.840;4.948;2022-07-18T11:49:14;30.30;40.40
11136;DHT22;5622;50.840;4.948;2022-07-18T11:51:44;30.30;38.90
11136;DHT22;5622;50.840;4.948;2022-07-18T11:54:12;30.20;40.00
11136;DHT22;5622;50.840;4.948;2022-07-18T11:56:50;30.20;39.60
11136;DHT22;5622;50.840;4.948;2022-07-18T11:59:19;30.10;41.20
11136;DHT22;5622;50.840;4.948;2022-07-18T12:01:47;30.00;39.80
11136;DHT22;5622;50.840;4.948;2022-07-18T12:04:19;30.00;39.80
11136;DHT22;5622;50.840;4.948;2022-07-18T12:09:29;30.00;38.30
11136;DHT22;5622;50.840;4.948;2022-07-18T12:11:56;29.90;38.20
11136;DHT22;5622;50.840;4.948;2022-07-18T12:14:54;29.90;39.00
11136;DHT22;5622;50.840;4.948;2022-07-18T12:17:21;30.00;39.20
11136;DHT22;5622;50.840;4.948;2022-07-18T12:19:52;30.00;39.10
11136;DHT22;5622;50.840;4.948;2022-07-18T12:22:34;30.00;39.70
11136;DHT22;5622;50.840;4.948;2022-07-18T12:25:02;30.00;40.10
11136;DHT22;5622;50.840;4.948;2022-07-18T12:27:35;30.00;39.50
11136;DHT22;5622;50.840;4.948;2022-07-18T12:30:07;29.90;39.20
11136;DHT22;5622;50.840;4.948;2022-07-18T12:32:46;29.90;40.40
11136;DHT22;5622;50.840;4.948;2022-07-18T12:35:17;30.00;37.10
11136;DHT22;5622;50.840;4.948;2022-07-18T12:37:53;29.90;37.90
11136;DHT22;5622;50.840;4.948;2022-07-18T12:40:21;30.00;38.30
11136;DHT22;5622;50.840;4.948;2022-07-18T12:42:48;29.90;40.50
11136;DHT22;5622;50.840;4.948;2022-07-18T12:45:17;29.90;38.40
11136;DHT22;5622;50.840;4.948;2022-07-18T12:47:44;30.00;37.70
11136;DHT22;5622;50.840;4.948;2022-07-18T12:50:11;30.00;38.50
11136;DHT22;5622;50.840;4.948;2022-07-18T12:52:38;30.20;36.90
11136;DHT22;5622;50.840;4.948;2022-07-18T12:55:06;30.20;36.80
11136;DHT22;5622;50.840;4.948;2022-07-18T12:57:34;30.30;38.50
11136;DHT22;5622;50.840;4.948;2022-07-18T13:00:02;30.30;35.50
11136;DHT22;5622;50.840;4.948;2022-07-18T13:02:32;30.20;36.60
11136;DHT22;5622;50.840;4.948;2022-07-18T13:05:02;30.20;39.30
11136;DHT22;5622;50.840;4.948;2022-07-18T13:07:30;30.10;36.80
11136;DHT22;5622;50.840;4.948;2022-07-18T13:09:57;30.10;37.80
11136;DHT22;5622;50.840;4.948;2022-07-18T13:12:24;30.10;38.10
11136;DHT22;5622;50.840;4.948;2022-07-18T13:14:51;30.20;37.10
11136;DHT22;5622;50.840;4.948;2022-07-18T13:17:18;30.20;37.20
11136;DHT22;5622;50.840;4.948;2022-07-18T13:19:47;30.20;38.40
11136;DHT22;5622;50.840;4.948;2022-07-18T13:22:15;30.10;38.90
11136;DHT22;5622;50.840;4.948;2022-07-18T13:24:42;30.00;38.40
11136;DHT22;5622;50.840;4.948;2022-07-18T13:27:10;30.00;36.60
11136;DHT22;5622;50.840;4.948;2022-07-18T13:29:37;30.10;35.40
11136;DHT22;5622;50.840;4.948;2022-07-18T13:32:05;30.10;35.60
11136;DHT22;5622;50.840;4.948;2022-07-18T13:34:32;30.10;36.70
11136;DHT22;5622;50.840;4.948;2022-07-18T13:37:00;30.10;35.00
11136;DHT22;5622;50.840;4.948;2022-07-18T13:39:27;30.00;36.50
11136;DHT22;5622;50.840;4.948;2022-07-18T13:41:55;30.00;35.50
11136;DHT22;5622;50.840;4.948;2022-07-18T13:44:22;30.00;37.10
11136;DHT22;5622;50.840;4.948;2022-07-18T13:46:49;29.90;38.30
11136;DHT22;5622;50.840;4.948;2022-07-18T13:49:16;29.90;36.80
11136;DHT22;5622;50.840;4.948;2022-07-18T13:51:43;29.90;36.80
11136;DHT22;5622;50.840;4.948;2022-07-18T13:54:12;30.00;34.90
11136;DHT22;5622;50.840;4.948;2022-07-18T13:56:42;30.00;35.80
11136;DHT22;5622;50.840;4.948;2022-07-18T13:59:09;30.00;36.60
11136;DHT22;5622;50.840;4.948;2022-07-18T14:01:36;30.00;36.20
11136;DHT22;5622;50.840;4.948;2022-07-18T14:04:04;30.00;38.00
11136;DHT22;5622;50.840;4.948;2022-07-18T14:06:31;30.10;35.60
11136;DHT22;5622;50.840;4.948;2022-07-18T14:08:58;30.20;33.90
11136;DHT22;5622;50.840;4.948;2022-07-18T14:11:26;30.20;33.90
11136;DHT22;5622;50.840;4.948;2022-07-18T14:13:53;30.20;34.80
11136;DHT22;5622;50.840;4.948;2022-07-18T14:16:20;30.20;36.60
11136;DHT22;5622;50.840;4.948;2022-07-18T14:18:48;30.20;36.60
11136;DHT22;5622;50.840;4.948;2022-07-18T14:21:15;30.10;34.60
11136;DHT22;5622;50.840;4.948;2022-07-18T14:23:42;30.20;37.30
11136;DHT22;5622;50.840;4.948;2022-07-18T14:26:09;30.10;36.00
11136;DHT22;5622;50.840;4.948;2022-07-18T14:28:38;30.10;36.20
11136;DHT22;5622;50.840;4.948;2022-07-18T14:31:05;30.30;35.20
11136;DHT22;5622;50.840;4.948;2022-07-18T14:33:33;30.20;36.20
11136;DHT22;5622;50.840;4.948;2022-07-18T14:36:00;30.20;35.70
11136;DHT22;5622;50.840;4.948;2022-07-18T14:38:27;30.10;36.00
11136;DHT22;5622;50.840;4.948;2022-07-18T14:40:54;30.20;36.90
11136;DHT22;5622;50.840;4.948;2022-07-18T14:43:21;30.20;36.00
11136;DHT22;5622;50.840;4.948;2022-07-18T14:45:50;30.20;35.50
11136;DHT22;5622;50.840;4.948;2022-07-18T14:48:17;30.30;33.70
11136;DHT22;5622;50.840;4.948;2022-07-18T14:50:48;30.30;35.70
11136;DHT22;5622;50.840;4.948;2022-07-18T14:53:15;30.30;35.40
11136;DHT22;5622;50.840;4.948;2022-07-18T14:55:42;30.20;37.50
11136;DHT22;5622;50.840;4.948;2022-07-18T14:58:10;30.20;37.10
11136;DHT22;5622;50.840;4.948;2022-07-18T15:00:37;30.30;36.40
11136;DHT22;5622;50.840;4.948;2022-07-18T15:03:06;30.30;35.60
11136;DHT22;5622;50.840;4.948;2022-07-18T15:05:33;30.40;35.90
11136;DHT22;5622;50.840;4.948;2022-07-18T15:08:00;30.30;36.90
11136;DHT22;5622;50.840;4.948;2022-07-18T15:10:29;30.30;36.60
11136;DHT22;5622;50.840;4.948;2022-07-18T15:12:56;30.30;37.40
11136;DHT22;5622;50.840;4.948;2022-07-18T15:15:23;30.20;37.70
11136;DHT22;5622;50.840;4.948;2022-07-18T15:17:51;30.20;37.90
11136;DHT22;5622;50.840;4.948;2022-07-18T15:20:19;30.20;37.30
11136;DHT22;5622;50.840;4.948;2022-07-18T15:22:47;30.20;37.00
11136;DHT22;5622;50.840;4.948;2022-07-18T15:25:14;30.20;37.90
11136;DHT22;5622;50.840;4.948;2022-07-18T15:27:41;30.20;37.50
11136;DHT22;5622;50.840;4.948;2022-07-18T15:30:09;30.10;37.50
11136;DHT22;5622;50.840;4.948;2022-07-18T15:32:36;30.10;38.90
11136;DHT22;5622;50.840;4.948;2022-07-18T15:35:04;30.10;36.20
11136;DHT22;5622;50.840;4.948;2022-07-18T15:37:33;30.20;36.10
11136;DHT22;5622;50.840;4.948;2022-07-18T15:40:00;30.20;38.50
11136;DHT22;5622;50.840;4.948;2022-07-18T15:42:27;30.30;36.20
11136;DHT22;5622;50.840;4.948;2022-07-18T15:44:55;30.30;36.60
11136;DHT22;5622;50.840;4.948;2022-07-18T15:47:22;30.30;36.30
11136;DHT22;5622;50.840;4.948;2022-07-18T15:49:49;30.40;34.90
11136;DHT22;5622;50.840;4.948;2022-07-18T15:52:16;30.40;35.10
11136;DHT22;5622;50.840;4.948;2022-07-18T15:54:45;30.40;34.70
11136;DHT22;5622;50.840;4.948;2022-07-18T15:57:12;30.40;34.30
11136;DHT22;5622;50.840;4.948;2022-07-18T15:59:39;30.40;36.80
11136;DHT22;5622;50.840;4.948;2022-07-18T16:02:06;30.30;37.80
11136;DHT22;5622;50.840;4.948;2022-07-18T16:04:33;30.30;38.20